Westminster, CO (80035)

10:00 AM MDT on April 21, 2015 (GMT -0600)
Shaw Heights | | Change Station
CLOSE
Current Station
Personal Weather Station
Location: Westminster, CO
Elevation: 5469 ft
Nearby Weather Stations

Elev 5469 ft 39.85 °N, 105.04 °W | Updated 2 minutes ago

Clear
Clear
60.3 °F
Feels Like 60.3 °F
N
3.2
Wind Variable Wind from ENE

Today
High -- | Low -- °F
--% Chance of Precip.
Yesterday
High -- | Low -- °F
Precip. -- in
6:14 AM 7:44 PM
Waxing Crescent, 11% visible
Pressure 29.94 in
Visibility 50.0 miles
Clouds Few 6000 ft
Scattered Clouds 9000 ft
Dew Point 36 °F
Humidity 41%
Rainfall 0.00 in
Snow Depth Not available.
UV 2 out of 12
Pollen 10.70 out of 12
Air Quality Not available.
Flu Activity Local Activity
METAR KBJC 211447Z VRB03KT 50SM FEW060 SCT090 10/00 A2994

More Conditions Fewer Conditions

Pressure 29.94 in
Visibility 50.0 miles
Clouds Few 6000 ft
Scattered Clouds 9000 ft
Dew Point 36 °F
Humidity 41%
Rainfall 0.00 in
Snow Depth Not available.
UV 2 out of 12
Pollen 10.70 out of 12
Air Quality Not available.
Flu Activity Local Activity
METAR KBJC 211447Z VRB03KT 50SM FEW060 SCT090 10/00 A2994

More Conditions Fewer Conditions

10-Day Weather Forecast

Almanac

Astronomy

Apr. 21, 2015 Rise Set
Actual Time
Civil Twilight
Nautical Twilight
Astronomical Twilight
Moon
Length of Visible Light
Length of Day
Tomorrow will be .
, % of the Moon is Illuminated

Today's Extremes

State Highs State Lows

Community

WunderPhotos

Upload Photos

1,815,433 photos uploaded!

WunderBlogs® & News

Nearby

Air Quality

  Air Quality AQ Index Pollutant
Not available.

Snow Depth

Station Depth Elevation

Earthquake Activity

City Distance Mag. Time & Date
Minimum magnitude displayed is 2.5.

Coastal Water Temperatures

Place Temperature

Stations

Nearby Weather Stations

Station Location Temp. Windchill Dew Point Humidity Wind Precip. Elev Updated Type